sensor_id;sensor_type;location;lat;lon;timestamp;pressure;altitude;pressure_sealevel;temperature;humidity
84671;BME280;74898;42.716;23.624;2024-02-26T00:01:27;94408.31;;;4.43;87.26
84671;BME280;74898;42.716;23.624;2024-02-26T00:03:52;94415.47;;;4.47;87.23
84671;BME280;74898;42.716;23.624;2024-02-26T00:06:19;94423.53;;;4.59;86.92
84671;BME280;74898;42.716;23.624;2024-02-26T00:08:45;94422.09;;;4.42;87.92
84671;BME280;74898;42.716;23.624;2024-02-26T00:11:10;94420.13;;;4.44;87.30
84671;BME280;74898;42.716;23.624;2024-02-26T00:13:36;94419.81;;;4.47;87.10
84671;BME280;74898;42.716;23.624;2024-02-26T00:16:03;94411.13;;;4.48;88.03
84671;BME280;74898;42.716;23.624;2024-02-26T00:18:29;94408.41;;;4.49;86.74
84671;BME280;74898;42.716;23.624;2024-02-26T00:20:54;94413.06;;;4.61;85.98
84671;BME280;74898;42.716;23.624;2024-02-26T00:23:20;94409.09;;;4.58;86.54
84671;BME280;74898;42.716;23.624;2024-02-26T00:25:45;94399.56;;;4.52;86.71
84671;BME280;74898;42.716;23.624;2024-02-26T00:28:11;94402.47;;;4.49;87.90
84671;BME280;74898;42.716;23.624;2024-02-26T00:30:38;94395.59;;;4.49;87.68
84671;BME280;74898;42.716;23.624;2024-02-26T00:33:04;94389.22;;;4.60;86.96
84671;BME280;74898;42.716;23.624;2024-02-26T00:35:30;94392.13;;;4.72;86.89
84671;BME280;74898;42.716;23.624;2024-02-26T00:37:55;94386.72;;;4.67;87.97
84671;BME280;74898;42.716;23.624;2024-02-26T00:40:21;94380.44;;;4.69;87.51
84671;BME280;74898;42.716;23.624;2024-02-26T00:42:46;94377.53;;;4.72;87.28
84671;BME280;74898;42.716;23.624;2024-02-26T00:45:13;94372.81;;;4.76;87.30
84671;BME280;74898;42.716;23.624;2024-02-26T00:47:39;94366.53;;;4.79;87.69
84671;BME280;74898;42.716;23.624;2024-02-26T00:50:07;94360.06;;;4.83;87.58
84671;BME280;74898;42.716;23.624;2024-02-26T00:52:33;94357.59;;;4.89;86.86
84671;BME280;74898;42.716;23.624;2024-02-26T00:54:59;94354.13;;;4.97;87.57
84671;BME280;74898;42.716;23.624;2024-02-26T00:57:25;94351.59;;;5.04;87.11
84671;BME280;74898;42.716;23.624;2024-02-26T00:59:50;94350.66;;;5.05;86.73
84671;BME280;74898;42.716;23.624;2024-02-26T01:02:16;94353.47;;;5.10;87.17
84671;BME280;74898;42.716;23.624;2024-02-26T01:04:41;94356.88;;;5.17;87.02
84671;BME280;74898;42.716;23.624;2024-02-26T01:07:07;94347.84;;;5.21;87.45
84671;BME280;74898;42.716;23.624;2024-02-26T01:09:32;94349.22;;;5.24;87.92
84671;BME280;74898;42.716;23.624;2024-02-26T01:11:58;94351.50;;;5.33;87.42
84671;BME280;74898;42.716;23.624;2024-02-26T01:14:24;94348.38;;;5.38;86.61
84671;BME280;74898;42.716;23.624;2024-02-26T01:16:49;94337.34;;;5.37;87.13
84671;BME280;74898;42.716;23.624;2024-02-26T01:19:15;94335.84;;;5.50;86.38
84671;BME280;74898;42.716;23.624;2024-02-26T01:21:40;94336.97;;;5.40;86.98
84671;BME280;74898;42.716;23.624;2024-02-26T01:24:06;94337.09;;;5.32;86.61
84671;BME280;74898;42.716;23.624;2024-02-26T01:26:32;94341.84;;;5.35;87.00
84671;BME280;74898;42.716;23.624;2024-02-26T01:28:58;94330.78;;;5.35;85.67
84671;BME280;74898;42.716;23.624;2024-02-26T01:31:23;94342.94;;;5.26;86.22
84671;BME280;74898;42.716;23.624;2024-02-26T01:33:49;94343.31;;;5.23;86.75
84671;BME280;74898;42.716;23.624;2024-02-26T01:36:14;94346.88;;;5.22;87.56
84671;BME280;74898;42.716;23.624;2024-02-26T01:38:40;94348.91;;;5.27;87.72
84671;BME280;74898;42.716;23.624;2024-02-26T01:41:05;94350.47;;;5.28;88.04
84671;BME280;74898;42.716;23.624;2024-02-26T01:43:31;94336.31;;;5.32;88.31
84671;BME280;74898;42.716;23.624;2024-02-26T01:45:57;94336.22;;;5.47;87.66
84671;BME280;74898;42.716;23.624;2024-02-26T01:48:23;94342.94;;;5.48;88.50
84671;BME280;74898;42.716;23.624;2024-02-26T01:50:49;94343.59;;;5.56;87.76
84671;BME280;74898;42.716;23.624;2024-02-26T01:53:16;94340.44;;;5.54;87.15
84671;BME280;74898;42.716;23.624;2024-02-26T01:55:42;94336.56;;;5.65;87.43
84671;BME280;74898;42.716;23.624;2024-02-26T01:58:08;94334.41;;;5.69;87.77
84671;BME280;74898;42.716;23.624;2024-02-26T02:00:34;94337.34;;;5.66;86.48
84671;BME280;74898;42.716;23.624;2024-02-26T02:03:01;94329.81;;;5.64;88.07
84671;BME280;74898;42.716;23.624;2024-02-26T02:05:28;94339.16;;;5.72;86.73
84671;BME280;74898;42.716;23.624;2024-02-26T02:07:54;94328.09;;;5.71;87.17
84671;BME280;74898;42.716;23.624;2024-02-26T02:10:19;94325.03;;;5.82;87.08
84671;BME280;74898;42.716;23.624;2024-02-26T02:12:48;94326.84;;;6.17;88.86
84671;BME280;74898;42.716;23.624;2024-02-26T02:15:14;94316.09;;;6.41;86.80
84671;BME280;74898;42.716;23.624;2024-02-26T02:17:40;94317.03;;;6.82;86.28
84671;BME280;74898;42.716;23.624;2024-02-26T02:20:33;94313.31;;;6.98;86.35
84671;BME280;74898;42.716;23.624;2024-02-26T02:22:59;94321.47;;;7.14;86.11
84671;BME280;74898;42.716;23.624;2024-02-26T02:25:24;94322.69;;;7.25;85.18
84671;BME280;74898;42.716;23.624;2024-02-26T02:27:51;94334.78;;;7.38;84.17
84671;BME280;74898;42.716;23.624;2024-02-26T02:30:18;94324.47;;;7.45;83.48
84671;BME280;74898;42.716;23.624;2024-02-26T02:32:44;94327.47;;;7.48;82.90
84671;BME280;74898;42.716;23.624;2024-02-26T02:35:10;94335.19;;;7.55;82.74
84671;BME280;74898;42.716;23.624;2024-02-26T02:37:36;94331.44;;;7.57;83.49
84671;BME280;74898;42.716;23.624;2024-02-26T02:40:02;94330.44;;;7.65;81.95
84671;BME280;74898;42.716;23.624;2024-02-26T02:42:28;94328.63;;;7.59;83.97
84671;BME280;74898;42.716;23.624;2024-02-26T02:44:54;94329.06;;;7.63;83.51
84671;BME280;74898;42.716;23.624;2024-02-26T02:47:20;94335.97;;;7.62;82.94
84671;BME280;74898;42.716;23.624;2024-02-26T02:49:46;94323.91;;;7.63;82.31
84671;BME280;74898;42.716;23.624;2024-02-26T02:52:11;94338.38;;;7.70;81.73
84671;BME280;74898;42.716;23.624;2024-02-26T02:54:37;94326.47;;;7.63;81.52
84671;BME280;74898;42.716;23.624;2024-02-26T02:57:05;94327.47;;;7.68;81.21
84671;BME280;74898;42.716;23.624;2024-02-26T02:59:31;94337.75;;;7.62;81.93
84671;BME280;74898;42.716;23.624;2024-02-26T03:01:56;94333.59;;;7.61;81.79
84671;BME280;74898;42.716;23.624;2024-02-26T03:04:22;94323.09;;;7.55;81.72
84671;BME280;74898;42.716;23.624;2024-02-26T03:06:47;94320.31;;;7.57;81.50
84671;BME280;74898;42.716;23.624;2024-02-26T03:09:13;94328.03;;;7.57;81.19
84671;BME280;74898;42.716;23.624;2024-02-26T03:11:38;94326.66;;;7.48;81.52
84671;BME280;74898;42.716;23.624;2024-02-26T03:14:05;94331.81;;;7.41;81.83
84671;BME280;74898;42.716;23.624;2024-02-26T03:16:31;94335.78;;;7.44;81.88
84671;BME280;74898;42.716;23.624;2024-02-26T03:18:57;94339.34;;;7.43;81.59
84671;BME280;74898;42.716;23.624;2024-02-26T03:21:25;94336.94;;;7.34;81.33
84671;BME280;74898;42.716;23.624;2024-02-26T03:23:50;94329.63;;;7.31;82.82
84671;BME280;74898;42.716;23.624;2024-02-26T03:26:16;94326.66;;;7.28;82.98
84671;BME280;74898;42.716;23.624;2024-02-26T03:28:42;94334.28;;;6.95;81.59
84671;BME280;74898;42.716;23.624;2024-02-26T03:31:07;94331.06;;;6.79;82.20
84671;BME280;74898;42.716;23.624;2024-02-26T03:33:34;94337.19;;;6.71;80.58
84671;BME280;74898;42.716;23.624;2024-02-26T03:35:59;94327.59;;;6.45;81.80
84671;BME280;74898;42.716;23.624;2024-02-26T03:38:25;94333.19;;;6.21;84.79
84671;BME280;74898;42.716;23.624;2024-02-26T03:40:50;94329.38;;;6.10;82.57
84671;BME280;74898;42.716;23.624;2024-02-26T03:43:16;94331.13;;;5.81;84.53
84671;BME280;74898;42.716;23.624;2024-02-26T03:45:42;94332.97;;;5.88;84.77
84671;BME280;74898;42.716;23.624;2024-02-26T03:48:08;94334.28;;;5.77;84.77
84671;BME280;74898;42.716;23.624;2024-02-26T03:50:34;94320.47;;;5.78;84.52
84671;BME280;74898;42.716;23.624;2024-02-26T03:53:00;94325.97;;;5.75;84.12
84671;BME280;74898;42.716;23.624;2024-02-26T03:55:27;94329.66;;;5.66;84.55
84671;BME280;74898;42.716;23.624;2024-02-26T03:57:53;94333.22;;;5.65;84.87
84671;BME280;74898;42.716;23.624;2024-02-26T04:00:19;94328.19;;;5.56;85.24
84671;BME280;74898;42.716;23.624;2024-02-26T04:02:46;94325.03;;;5.54;85.05
84671;BME280;74898;42.716;23.624;2024-02-26T04:05:13;94333.31;;;5.56;84.95
84671;BME280;74898;42.716;23.624;2024-02-26T04:07:39;94333.69;;;5.53;84.11
84671;BME280;74898;42.716;23.624;2024-02-26T04:10:11;94327.31;;;5.43;85.19
84671;BME280;74898;42.716;23.624;2024-02-26T04:12:41;94327.69;;;5.39;86.27
84671;BME280;74898;42.716;23.624;2024-02-26T04:15:08;94329.19;;;5.34;85.92
84671;BME280;74898;42.716;23.624;2024-02-26T04:17:34;94324.13;;;5.19;86.62
84671;BME280;74898;42.716;23.624;2024-02-26T04:20:00;94322.22;;;5.28;85.92
84671;BME280;74898;42.716;23.624;2024-02-26T04:22:25;94326.50;;;5.20;86.65
84671;BME280;74898;42.716;23.624;2024-02-26T04:24:51;94326.88;;;5.17;86.49
84671;BME280;74898;42.716;23.624;2024-02-26T04:27:16;94322.06;;;5.08;87.35
84671;BME280;74898;42.716;23.624;2024-02-26T04:29:42;94320.88;;;4.89;87.00
84671;BME280;74898;42.716;23.624;2024-02-26T04:32:08;94316.66;;;4.81;88.00
84671;BME280;74898;42.716;23.624;2024-02-26T04:34:33;94320.19;;;4.80;87.14
84671;BME280;74898;42.716;23.624;2024-02-26T04:36:58;94320.38;;;4.79;87.73
84671;BME280;74898;42.716;23.624;2024-02-26T04:39:24;94311.63;;;4.73;86.32
84671;BME280;74898;42.716;23.624;2024-02-26T04:41:49;94330.13;;;4.68;87.99
84671;BME280;74898;42.716;23.624;2024-02-26T04:44:15;94318.66;;;4.64;87.87
84671;BME280;74898;42.716;23.624;2024-02-26T04:46:41;94321.03;;;4.66;87.77
84671;BME280;74898;42.716;23.624;2024-02-26T04:49:06;94324.13;;;4.61;88.30
84671;BME280;74898;42.716;23.624;2024-02-26T04:51:32;94328.09;;;4.64;88.48
84671;BME280;74898;42.716;23.624;2024-02-26T04:53:57;94325.19;;;4.67;87.99
84671;BME280;74898;42.716;23.624;2024-02-26T04:56:23;94332.00;;;4.60;88.72
84671;BME280;74898;42.716;23.624;2024-02-26T04:58:48;94327.75;;;4.67;88.44
84671;BME280;74898;42.716;23.624;2024-02-26T05:01:15;94324.72;;;4.78;87.26
84671;BME280;74898;42.716;23.624;2024-02-26T05:03:42;94326.81;;;4.89;87.13
84671;BME280;74898;42.716;23.624;2024-02-26T05:06:11;94328.03;;;4.93;86.78
84671;BME280;74898;42.716;23.624;2024-02-26T05:08:37;94330.38;;;5.10;88.50
84671;BME280;74898;42.716;23.624;2024-02-26T05:11:04;94331.28;;;5.45;87.73
84671;BME280;74898;42.716;23.624;2024-02-26T05:13:29;94328.41;;;5.83;85.20
84671;BME280;74898;42.716;23.624;2024-02-26T05:15:55;94333.69;;;6.03;85.05
84671;BME280;74898;42.716;23.624;2024-02-26T05:18:22;94335.31;;;6.11;83.59
84671;BME280;74898;42.716;23.624;2024-02-26T05:20:47;94332.22;;;6.22;83.91
84671;BME280;74898;42.716;23.624;2024-02-26T05:23:13;94343.94;;;6.31;82.95
84671;BME280;74898;42.716;23.624;2024-02-26T05:25:39;94348.56;;;6.49;83.18
84671;BME280;74898;42.716;23.624;2024-02-26T05:28:04;94349.44;;;6.63;83.05
84671;BME280;74898;42.716;23.624;2024-02-26T05:30:30;94351.66;;;6.73;82.07
84671;BME280;74898;42.716;23.624;2024-02-26T05:32:55;94359.97;;;6.81;83.19
84671;BME280;74898;42.716;23.624;2024-02-26T05:35:21;94353.69;;;6.97;81.91
84671;BME280;74898;42.716;23.624;2024-02-26T05:37:46;94362.63;;;7.01;80.93
84671;BME280;74898;42.716;23.624;2024-02-26T05:40:13;94360.28;;;7.13;81.58
84671;BME280;74898;42.716;23.624;2024-02-26T05:42:39;94361.31;;;7.25;81.11
84671;BME280;74898;42.716;23.624;2024-02-26T05:45:06;94365.88;;;7.30;80.93
84671;BME280;74898;42.716;23.624;2024-02-26T05:47:33;94365.47;;;7.33;82.32
84671;BME280;74898;42.716;23.624;2024-02-26T05:49:58;94367.06;;;7.47;81.15
84671;BME280;74898;42.716;23.624;2024-02-26T05:52:26;94367.09;;;7.54;80.92
84671;BME280;74898;42.716;23.624;2024-02-26T05:54:52;94367.69;;;7.63;81.67
84671;BME280;74898;42.716;23.624;2024-02-26T05:57:17;94375.22;;;7.64;81.20
84671;BME280;74898;42.716;23.624;2024-02-26T05:59:44;94375.41;;;7.69;80.67
84671;BME280;74898;42.716;23.624;2024-02-26T06:02:09;94374.81;;;7.74;79.57
84671;BME280;74898;42.716;23.624;2024-02-26T06:04:35;94374.44;;;7.77;81.04
84671;BME280;74898;42.716;23.624;2024-02-26T06:07:00;94379.00;;;7.75;79.61
84671;BME280;74898;42.716;23.624;2024-02-26T06:09:26;94385.31;;;7.72;80.08
84671;BME280;74898;42.716;23.624;2024-02-26T06:11:52;94392.69;;;7.75;81.21
84671;BME280;74898;42.716;23.624;2024-02-26T06:14:18;94386.91;;;7.87;80.69
84671;BME280;74898;42.716;23.624;2024-02-26T06:16:44;94386.72;;;7.95;79.54
84671;BME280;74898;42.716;23.624;2024-02-26T06:19:10;94396.66;;;7.98;80.46
84671;BME280;74898;42.716;23.624;2024-02-26T06:21:36;94396.25;;;8.08;78.81
84671;BME280;74898;42.716;23.624;2024-02-26T06:24:01;94407.16;;;8.16;80.00
84671;BME280;74898;42.716;23.624;2024-02-26T06:26:27;94402.38;;;8.20;79.29
84671;BME280;74898;42.716;23.624;2024-02-26T06:28:54;94392.28;;;8.25;79.37
84671;BME280;74898;42.716;23.624;2024-02-26T06:31:21;94403.56;;;8.31;78.16
84671;BME280;74898;42.716;23.624;2024-02-26T06:33:48;94403.53;;;8.37;78.17
84671;BME280;74898;42.716;23.624;2024-02-26T06:36:16;94401.78;;;8.44;78.62
84671;BME280;74898;42.716;23.624;2024-02-26T06:38:41;94405.34;;;8.50;78.58
84671;BME280;74898;42.716;23.624;2024-02-26T06:41:07;94397.81;;;8.49;78.75
84671;BME280;74898;42.716;23.624;2024-02-26T06:43:32;94389.88;;;8.50;77.53
84671;BME280;74898;42.716;23.624;2024-02-26T06:45:58;94396.00;;;8.56;77.55
84671;BME280;74898;42.716;23.624;2024-02-26T06:48:24;94401.13;;;8.62;78.08
84671;BME280;74898;42.716;23.624;2024-02-26T06:50:50;94389.00;;;8.70;76.85
84671;BME280;74898;42.716;23.624;2024-02-26T06:53:19;94401.91;;;8.76;76.26
84671;BME280;74898;42.716;23.624;2024-02-26T06:55:44;94396.69;;;8.90;76.22
84671;BME280;74898;42.716;23.624;2024-02-26T06:58:10;94401.63;;;8.98;76.61
84671;BME280;74898;42.716;23.624;2024-02-26T07:00:36;94396.00;;;9.07;76.06
84671;BME280;74898;42.716;23.624;2024-02-26T07:03:02;94398.94;;;9.18;74.37
84671;BME280;74898;42.716;23.624;2024-02-26T07:05:28;94394.53;;;9.25;74.89
84671;BME280;74898;42.716;23.624;2024-02-26T07:07:54;94410.19;;;9.37;73.07
84671;BME280;74898;42.716;23.624;2024-02-26T07:10:19;94398.03;;;9.44;73.48
84671;BME280;74898;42.716;23.624;2024-02-26T07:12:45;94406.47;;;9.58;72.64
84671;BME280;74898;42.716;23.624;2024-02-26T07:15:10;94402.03;;;9.71;71.95
84671;BME280;74898;42.716;23.624;2024-02-26T07:17:36;94395.81;;;9.79;72.28
84671;BME280;74898;42.716;23.624;2024-02-26T07:20:02;94413.38;;;9.95;72.46
84671;BME280;74898;42.716;23.624;2024-02-26T07:22:31;94415.66;;;10.10;71.67
84671;BME280;74898;42.716;23.624;2024-02-26T07:24:57;94414.28;;;10.08;71.87
84671;BME280;74898;42.716;23.624;2024-02-26T07:27:23;94406.00;;;10.24;71.25
84671;BME280;74898;42.716;23.624;2024-02-26T07:29:48;94407.53;;;10.57;70.65
84671;BME280;74898;42.716;23.624;2024-02-26T07:32:14;94403.22;;;10.69;69.22
84671;BME280;74898;42.716;23.624;2024-02-26T07:34:39;94404.94;;;10.75;69.23
84671;BME280;74898;42.716;23.624;2024-02-26T07:37:10;94406.44;;;10.83;69.05
84671;BME280;74898;42.716;23.624;2024-02-26T07:39:35;94414.22;;;10.83;69.40
84671;BME280;74898;42.716;23.624;2024-02-26T07:42:02;94418.03;;;10.99;68.75
84671;BME280;74898;42.716;23.624;2024-02-26T07:44:27;94414.50;;;10.93;68.38
84671;BME280;74898;42.716;23.624;2024-02-26T07:46:53;94411.53;;;11.08;68.27
84671;BME280;74898;42.716;23.624;2024-02-26T07:49:18;94415.88;;;10.96;68.51
84671;BME280;74898;42.716;23.624;2024-02-26T07:51:44;94416.72;;;11.08;67.68
84671;BME280;74898;42.716;23.624;2024-02-26T07:54:09;94418.00;;;11.17;68.15
84671;BME280;74898;42.716;23.624;2024-02-26T07:56:35;94418.16;;;11.22;67.72
84671;BME280;74898;42.716;23.624;2024-02-26T07:59:00;94412.69;;;11.12;66.59
84671;BME280;74898;42.716;23.624;2024-02-26T08:01:26;94404.06;;;11.00;67.52
84671;BME280;74898;42.716;23.624;2024-02-26T08:03:55;94414.00;;;11.21;68.17
84671;BME280;74898;42.716;23.624;2024-02-26T08:06:21;94405.31;;;11.28;66.88
84671;BME280;74898;42.716;23.624;2024-02-26T08:08:47;94413.69;;;11.30;67.42
84671;BME280;74898;42.716;23.624;2024-02-26T08:11:15;94412.59;;;11.37;66.36
84671;BME280;74898;42.716;23.624;2024-02-26T08:13:41;94399.53;;;11.44;66.79
84671;BME280;74898;42.716;23.624;2024-02-26T08:16:07;94409.25;;;11.49;66.73
84671;BME280;74898;42.716;23.624;2024-02-26T08:18:33;94402.00;;;11.39;66.68
84671;BME280;74898;42.716;23.624;2024-02-26T08:20:58;94408.03;;;11.51;66.28
84671;BME280;74898;42.716;23.624;2024-02-26T08:23:24;94400.16;;;11.58;65.82
84671;BME280;74898;42.716;23.624;2024-02-26T08:25:50;94409.78;;;11.81;64.41
84671;BME280;74898;42.716;23.624;2024-02-26T08:28:16;94396.16;;;11.74;65.40
84671;BME280;74898;42.716;23.624;2024-02-26T08:30:43;94405.28;;;11.76;65.32
84671;BME280;74898;42.716;23.624;2024-02-26T08:33:09;94401.50;;;11.91;63.27
84671;BME280;74898;42.716;23.624;2024-02-26T08:35:35;94401.31;;;12.16;63.50
84671;BME280;74898;42.716;23.624;2024-02-26T08:38:01;94400.63;;;12.20;62.82
84671;BME280;74898;42.716;23.624;2024-02-26T08:40:26;94405.94;;;12.37;62.55
84671;BME280;74898;42.716;23.624;2024-02-26T08:42:52;94398.16;;;12.25;61.51
84671;BME280;74898;42.716;23.624;2024-02-26T08:45:17;94389.03;;;12.35;61.32
84671;BME280;74898;42.716;23.624;2024-02-26T08:47:45;94393.97;;;12.48;60.99
84671;BME280;74898;42.716;23.624;2024-02-26T08:50:10;94388.31;;;12.51;61.75
84671;BME280;74898;42.716;23.624;2024-02-26T08:52:37;94380.31;;;12.64;61.04
84671;BME280;74898;42.716;23.624;2024-02-26T08:55:03;94390.91;;;12.74;59.15
84671;BME280;74898;42.716;23.624;2024-02-26T08:57:30;94393.25;;;12.76;58.49
84671;BME280;74898;42.716;23.624;2024-02-26T08:59:57;94396.78;;;12.70;58.50
84671;BME280;74898;42.716;23.624;2024-02-26T09:02:23;94394.75;;;12.72;58.11
84671;BME280;74898;42.716;23.624;2024-02-26T09:04:48;94392.84;;;12.79;58.42
84671;BME280;74898;42.716;23.624;2024-02-26T09:07:16;94391.69;;;12.75;59.25
84671;BME280;74898;42.716;23.624;2024-02-26T09:09:41;94394.69;;;12.95;59.81
84671;BME280;74898;42.716;23.624;2024-02-26T09:12:07;94391.50;;;13.17;57.76
84671;BME280;74898;42.716;23.624;2024-02-26T09:14:33;94399.72;;;13.14;57.81
84671;BME280;74898;42.716;23.624;2024-02-26T09:16:58;94389.81;;;13.11;55.21
84671;BME280;74898;42.716;23.624;2024-02-26T09:19:25;94390.16;;;13.03;56.66
84671;BME280;74898;42.716;23.624;2024-02-26T09:21:52;94394.69;;;12.95;57.18
84671;BME280;74898;42.716;23.624;2024-02-26T09:24:21;94383.41;;;13.02;56.21
84671;BME280;74898;42.716;23.624;2024-02-26T09:26:47;94389.47;;;13.07;56.27
84671;BME280;74898;42.716;23.624;2024-02-26T09:29:12;94376.72;;;13.06;54.74
84671;BME280;74898;42.716;23.624;2024-02-26T09:31:38;94383.59;;;13.12;55.99
84671;BME280;74898;42.716;23.624;2024-02-26T09:34:06;94386.81;;;13.31;54.98
84671;BME280;74898;42.716;23.624;2024-02-26T09:36:33;94377.00;;;13.33;56.00
84671;BME280;74898;42.716;23.624;2024-02-26T09:38:59;94378.38;;;13.52;55.62
84671;BME280;74898;42.716;23.624;2024-02-26T09:41:27;94369.97;;;13.62;54.66
84671;BME280;74898;42.716;23.624;2024-02-26T09:43:56;94370.22;;;13.77;53.35
84671;BME280;74898;42.716;23.624;2024-02-26T09:46:23;94371.00;;;13.78;55.10
84671;BME280;74898;42.716;23.624;2024-02-26T09:48:49;94353.97;;;14.04;54.10
84671;BME280;74898;42.716;23.624;2024-02-26T09:51:15;94366.44;;;14.02;53.95
84671;BME280;74898;42.716;23.624;2024-02-26T09:53:43;94366.25;;;13.92;53.23
84671;BME280;74898;42.716;23.624;2024-02-26T09:56:11;94356.50;;;13.99;52.36
84671;BME280;74898;42.716;23.624;2024-02-26T09:58:39;94364.56;;;13.97;52.40
84671;BME280;74898;42.716;23.624;2024-02-26T10:01:11;94364.44;;;14.09;53.52
84671;BME280;74898;42.716;23.624;2024-02-26T10:03:41;94365.63;;;14.18;52.90
84671;BME280;74898;42.716;23.624;2024-02-26T10:06:08;94365.41;;;13.86;52.47
84671;BME280;74898;42.716;23.624;2024-02-26T10:08:35;94363.59;;;14.03;52.72
84671;BME280;74898;42.716;23.624;2024-02-26T10:11:00;94359.31;;;14.14;53.60
84671;BME280;74898;42.716;23.624;2024-02-26T10:13:26;94352.41;;;14.20;51.99
84671;BME280;74898;42.716;23.624;2024-02-26T10:15:52;94356.00;;;14.19;51.94
84671;BME280;74898;42.716;23.624;2024-02-26T10:18:18;94355.44;;;14.34;51.50
84671;BME280;74898;42.716;23.624;2024-02-26T10:21:01;94353.69;;;14.56;51.15
84671;BME280;74898;42.716;23.624;2024-02-26T10:23:27;94354.03;;;14.60;50.64
84671;BME280;74898;42.716;23.624;2024-02-26T10:25:54;94343.28;;;14.78;50.53
84671;BME280;74898;42.716;23.624;2024-02-26T10:28:20;94348.22;;;14.75;49.21
84671;BME280;74898;42.716;23.624;2024-02-26T10:30:46;94337.03;;;14.79;49.23
84671;BME280;74898;42.716;23.624;2024-02-26T10:33:12;94344.34;;;14.77;49.41
84671;BME280;74898;42.716;23.624;2024-02-26T10:35:39;94336.09;;;14.85;49.39
84671;BME280;74898;42.716;23.624;2024-02-26T10:38:07;94331.03;;;14.79;49.04
84671;BME280;74898;42.716;23.624;2024-02-26T10:40:32;94329.00;;;14.81;49.70
84671;BME280;74898;42.716;23.624;2024-02-26T10:42:58;94324.56;;;15.03;49.77
84671;BME280;74898;42.716;23.624;2024-02-26T10:45:24;94318.44;;;15.20;48.09
84671;BME280;74898;42.716;23.624;2024-02-26T10:47:50;94312.03;;;15.27;47.92
84671;BME280;74898;42.716;23.624;2024-02-26T10:50:16;94306.66;;;15.39;47.44
84671;BME280;74898;42.716;23.624;2024-02-26T10:52:42;94306.69;;;15.44;46.90
84671;BME280;74898;42.716;23.624;2024-02-26T10:55:15;94304.78;;;15.67;47.25
84671;BME280;74898;42.716;23.624;2024-02-26T10:57:44;94312.69;;;15.72;46.56
84671;BME280;74898;42.716;23.624;2024-02-26T11:00:14;94309.22;;;15.93;46.33
84671;BME280;74898;42.716;23.624;2024-02-26T11:02:41;94308.72;;;15.96;46.25
84671;BME280;74898;42.716;23.624;2024-02-26T11:05:08;94306.72;;;16.09;44.73
84671;BME280;74898;42.716;23.624;2024-02-26T11:07:37;94306.63;;;15.98;44.97
84671;BME280;74898;42.716;23.624;2024-02-26T11:10:06;94308.97;;;15.63;46.86
84671;BME280;74898;42.716;23.624;2024-02-26T11:12:32;94309.59;;;15.75;46.95
84671;BME280;74898;42.716;23.624;2024-02-26T11:15:00;94303.13;;;15.83;45.74
84671;BME280;74898;42.716;23.624;2024-02-26T11:17:29;94318.53;;;15.84;46.63
84671;BME280;74898;42.716;23.624;2024-02-26T11:19:57;94303.69;;;15.58;46.42
84671;BME280;74898;42.716;23.624;2024-02-26T11:22:26;94302.66;;;15.59;45.80
84671;BME280;74898;42.716;23.624;2024-02-26T11:24:56;94297.00;;;15.40;46.65
84671;BME280;74898;42.716;23.624;2024-02-26T11:27:44;94292.78;;;15.33;45.71
84671;BME280;74898;42.716;23.624;2024-02-26T11:30:12;94293.97;;;15.21;45.71
84671;BME280;74898;42.716;23.624;2024-02-26T11:32:38;94299.47;;;15.24;44.72
84671;BME280;74898;42.716;23.624;2024-02-26T11:35:07;94297.16;;;15.01;45.16
84671;BME280;74898;42.716;23.624;2024-02-26T11:37:35;94300.59;;;15.06;46.20
84671;BME280;74898;42.716;23.624;2024-02-26T11:40:01;94292.91;;;14.95;45.24
84671;BME280;74898;42.716;23.624;2024-02-26T11:42:27;94293.50;;;15.02;43.33
84671;BME280;74898;42.716;23.624;2024-02-26T11:44:55;94290.06;;;14.96;45.49
84671;BME280;74898;42.716;23.624;2024-02-26T11:47:26;94287.50;;;15.01;43.73
84671;BME280;74898;42.716;23.624;2024-02-26T11:49:52;94285.16;;;15.00;44.54
84671;BME280;74898;42.716;23.624;2024-02-26T11:52:17;94272.97;;;15.05;44.30
84671;BME280;74898;42.716;23.624;2024-02-26T11:57:32;94267.28;;;15.13;44.10
84671;BME280;74898;42.716;23.624;2024-02-26T12:02:44;94273.13;;;14.99;44.38
84671;BME280;74898;42.716;23.624;2024-02-26T12:05:15;94273.25;;;15.09;42.07
84671;BME280;74898;42.716;23.624;2024-02-26T12:07:49;94260.88;;;14.99;42.06
84671;BME280;74898;42.716;23.624;2024-02-26T12:10:26;94268.47;;;15.01;43.26
84671;BME280;74898;42.716;23.624;2024-02-26T12:12:58;94269.25;;;15.01;41.75
84671;BME280;74898;42.716;23.624;2024-02-26T12:15:30;94269.81;;;15.03;40.28
84671;BME280;74898;42.716;23.624;2024-02-26T12:17:56;94265.09;;;15.00;40.53
84671;BME280;74898;42.716;23.624;2024-02-26T12:20:21;94264.88;;;15.07;40.61
84671;BME280;74898;42.716;23.624;2024-02-26T12:22:49;94265.13;;;15.05;40.19
84671;BME280;74898;42.716;23.624;2024-02-26T12:25:16;94268.75;;;15.04;40.48
84671;BME280;74898;42.716;23.624;2024-02-26T12:27:41;94273.97;;;15.04;40.32
84671;BME280;74898;42.716;23.624;2024-02-26T12:30:08;94261.06;;;15.20;40.88
84671;BME280;74898;42.716;23.624;2024-02-26T12:32:35;94259.69;;;15.39;41.58
84671;BME280;74898;42.716;23.624;2024-02-26T12:35:00;94267.91;;;15.53;40.46
84671;BME280;74898;42.716;23.624;2024-02-26T12:37:27;94270.91;;;15.40;41.00
84671;BME280;74898;42.716;23.624;2024-02-26T12:39:53;94274.31;;;15.40;41.30
84671;BME280;74898;42.716;23.624;2024-02-26T12:42:19;94270.09;;;15.34;39.82
84671;BME280;74898;42.716;23.624;2024-02-26T12:44:46;94276.47;;;15.48;40.84
84671;BME280;74898;42.716;23.624;2024-02-26T12:47:11;94269.38;;;15.71;40.21
84671;BME280;74898;42.716;23.624;2024-02-26T12:49:42;94274.50;;;15.61;39.56
84671;BME280;74898;42.716;23.624;2024-02-26T12:52:09;94276.09;;;15.67;39.34
84671;BME280;74898;42.716;23.624;2024-02-26T12:54:35;94272.56;;;15.78;40.49
84671;BME280;74898;42.716;23.624;2024-02-26T12:57:05;94269.47;;;15.86;38.72